createdAt,value
2022-08-07T00:01:43.798Z,1.17
2022-08-07T00:04:05.927Z,1.73
2022-08-07T00:06:33.905Z,1.27
2022-08-07T00:09:16.300Z,1.23
2022-08-07T00:11:53.930Z,1.20
2022-08-07T00:14:25.392Z,1.30
2022-08-07T00:17:00.248Z,1.50
2022-08-07T00:19:59.567Z,1.52
2022-08-07T00:22:24.361Z,1.65
2022-08-07T00:25:04.427Z,1.40
2022-08-07T00:27:51.668Z,1.48
2022-08-07T00:30:26.518Z,1.65
2022-08-07T00:32:55.763Z,1.40
2022-08-07T00:35:23.102Z,1.35
2022-08-07T00:37:50.082Z,1.37
2022-08-07T00:40:39.961Z,1.50
2022-08-07T00:43:09.924Z,1.50
2022-08-07T00:45:39.116Z,1.40
2022-08-07T00:48:09.666Z,1.48
2022-08-07T00:50:46.333Z,1.50
2022-08-07T00:53:19.562Z,1.40
2022-08-07T00:56:02.331Z,1.75
2022-08-07T00:58:30.312Z,1.63
2022-08-07T01:00:56.864Z,1.60
2022-08-07T01:03:55.610Z,1.70
2022-08-07T01:06:10.237Z,1.70
2022-08-07T01:08:43.094Z,1.35
2022-08-07T01:12:10.025Z,1.45
2022-08-07T01:14:07.518Z,1.70
2022-08-07T01:16:36.644Z,1.30
2022-08-07T01:19:04.788Z,1.40
2022-08-07T01:21:47.169Z,1.63
2022-08-07T01:24:14.533Z,1.45
2022-08-07T01:26:47.962Z,1.38
2022-08-07T01:29:20.167Z,1.50
2022-08-07T01:31:48.907Z,1.60
2022-08-07T01:34:17.834Z,1.58
2022-08-07T01:36:52.663Z,1.77
2022-08-07T01:39:39.572Z,1.90
2022-08-07T01:42:39.524Z,1.97
2022-08-07T01:45:02.191Z,2.03
2022-08-07T01:48:29.700Z,2.05
2022-08-07T01:50:16.602Z,1.80
2022-08-07T01:52:54.371Z,1.60
2022-08-07T01:55:26.843Z,1.93
2022-08-07T01:58:05.532Z,1.80
2022-08-07T02:00:45.459Z,1.80
2022-08-07T02:03:26.510Z,1.50
2022-08-07T02:06:08.850Z,1.77
2022-08-07T02:08:54.410Z,1.33
2022-08-07T02:11:31.059Z,1.60
2022-08-07T02:14:10.494Z,1.63
2022-08-07T02:16:58.744Z,1.60
2022-08-07T02:20:05.845Z,1.73
2022-08-07T02:22:14.745Z,1.70
2022-08-07T02:24:46.418Z,1.65
2022-08-07T02:27:18.669Z,1.70
2022-08-07T02:29:54.308Z,1.27
2022-08-07T02:32:23.206Z,1.60
2022-08-07T02:34:51.478Z,1.80
2022-08-07T02:37:19.659Z,1.80
2022-08-07T02:40:12.334Z,1.60
2022-08-07T02:42:36.643Z,1.40
2022-08-07T02:45:07.311Z,1.50
2022-08-07T02:47:56.566Z,1.40
2022-08-07T02:50:30.891Z,2.25
2022-08-07T02:53:06.048Z,1.77
2022-08-07T02:56:02.213Z,1.60
2022-08-07T02:58:27.506Z,1.40
2022-08-07T03:00:57.476Z,1.60
2022-08-07T03:03:42.116Z,1.70
2022-08-07T03:06:16.385Z,1.70
2022-08-07T03:08:43.762Z,1.95
2022-08-07T03:11:11.077Z,1.55
2022-08-07T03:13:38.850Z,1.90
2022-08-07T03:16:16.870Z,1.75
2022-08-07T03:18:45.000Z,1.55
2022-08-07T03:21:14.570Z,1.90
2022-08-07T03:24:20.400Z,1.70
2022-08-07T03:26:33.955Z,1.53
2022-08-07T03:29:02.764Z,1.58
2022-08-07T03:31:42.845Z,2.03
2022-08-07T03:34:18.525Z,1.85
2022-08-07T03:36:52.867Z,1.80
2022-08-07T03:39:46.498Z,1.53
2022-08-07T03:42:09.250Z,1.70
2022-08-07T03:44:37.618Z,2.13
2022-08-07T03:47:13.911Z,2.08
2022-08-07T03:49:51.988Z,1.90
2022-08-07T03:52:26.599Z,1.87
2022-08-07T03:55:06.906Z,1.80
2022-08-07T03:58:34.773Z,2.00
2022-08-07T04:00:30.717Z,2.00
2022-08-07T04:03:03.969Z,1.98
2022-08-07T04:05:40.925Z,2.13
2022-08-07T04:08:18.292Z,1.90
2022-08-07T04:10:54.501Z,2.20
2022-08-07T04:14:10.606Z,1.80
2022-08-07T04:16:30.870Z,1.83
2022-08-07T04:19:01.823Z,2.10
2022-08-07T04:21:33.494Z,1.90
2022-08-07T04:24:06.982Z,2.30
2022-08-07T04:26:34.257Z,1.95
2022-08-07T04:29:01.990Z,2.00
2022-08-07T04:31:38.439Z,1.90
2022-08-07T04:34:16.579Z,1.95
2022-08-07T04:36:44.008Z,1.98
2022-08-07T04:39:12.217Z,2.10
2022-08-07T04:41:38.943Z,1.73
2022-08-07T04:44:13.170Z,1.73
2022-08-07T04:47:03.993Z,1.70
2022-08-07T04:49:38.435Z,2.20
2022-08-07T04:52:36.836Z,1.90
2022-08-07T04:58:15.941Z,2.17
2022-08-07T04:59:18.249Z,2.50
2022-08-07T05:02:02.056Z,1.90
2022-08-07T05:05:11.419Z,1.95
2022-08-07T05:07:51.563Z,2.40
2022-08-07T05:10:29.261Z,1.92
2022-08-07T05:14:44.461Z,1.90
2022-08-07T05:15:53.730Z,1.90
2022-08-07T05:18:32.437Z,1.98
2022-08-07T05:21:09.761Z,1.95
2022-08-07T05:23:36.488Z,2.00
2022-08-07T05:26:11.551Z,1.90
2022-08-07T05:28:48.431Z,1.98
2022-08-07T05:31:20.243Z,1.88
2022-08-07T05:33:51.399Z,2.08
2022-08-07T05:36:35.626Z,2.45
2022-08-07T05:39:16.012Z,2.20
2022-08-07T05:42:02.613Z,2.00
2022-08-07T05:44:35.374Z,2.20
2022-08-07T05:47:18.604Z,2.05
2022-08-07T05:49:50.612Z,2.05
2022-08-07T05:52:32.276Z,2.47
2022-08-07T05:55:06.747Z,2.15
2022-08-07T05:57:42.119Z,2.20
2022-08-07T06:00:16.462Z,2.15
2022-08-07T06:02:49.229Z,2.38
2022-08-07T06:05:18.108Z,2.13
2022-08-07T06:08:13.717Z,2.20
2022-08-07T06:10:33.848Z,2.10
2022-08-07T06:13:02.208Z,2.20
2022-08-07T06:15:42.419Z,2.00
2022-08-07T06:18:12.250Z,2.80
2022-08-07T06:20:50.386Z,2.60
2022-08-07T06:24:36.668Z,2.47
2022-08-07T06:26:16.637Z,2.47
2022-08-07T06:28:52.714Z,2.70
2022-08-07T06:31:20.210Z,2.53
2022-08-07T06:33:51.288Z,2.70
2022-08-07T06:36:27.532Z,2.33
2022-08-07T06:40:16.174Z,2.50
2022-08-07T06:42:00.408Z,2.85
2022-08-07T06:44:31.167Z,2.60
2022-08-07T06:47:12.571Z,2.28
2022-08-07T06:49:51.049Z,2.92
2022-08-07T06:52:32.000Z,2.80
2022-08-07T06:55:33.879Z,2.70
2022-08-07T06:57:57.172Z,2.90
2022-08-07T07:00:25.034Z,2.70
2022-08-07T07:02:57.802Z,2.83
2022-08-07T07:06:02.600Z,2.95
2022-08-07T07:08:18.819Z,2.85
2022-08-07T07:10:56.900Z,3.13
2022-08-07T07:13:55.440Z,2.83
2022-08-07T07:16:30.446Z,3.17
2022-08-07T07:19:11.421Z,3.30
2022-08-07T07:22:11.583Z,3.15
2022-08-07T07:24:42.997Z,2.90
2022-08-07T07:27:35.492Z,2.85
2022-08-07T07:30:32.342Z,3.25
2022-08-07T07:33:04.970Z,3.10
2022-08-07T07:35:44.008Z,3.08
2022-08-07T07:38:25.919Z,2.70
2022-08-07T07:41:02.444Z,2.53
2022-08-07T07:44:14.158Z,2.92
2022-08-07T07:46:37.072Z,3.15
2022-08-07T07:50:15.930Z,2.67
2022-08-07T07:51:58.337Z,2.43
2022-08-07T07:54:27.585Z,2.40
2022-08-07T07:56:57.404Z,2.00
2022-08-07T07:59:52.703Z,2.28
2022-08-07T08:02:22.591Z,3.20
2022-08-07T08:05:11.393Z,2.80
2022-08-07T08:07:59.903Z,3.15
2022-08-07T08:10:37.729Z,4.38
2022-08-07T08:13:10.471Z,4.07
2022-08-07T08:15:58.546Z,3.97
2022-08-07T08:18:28.136Z,3.50
2022-08-07T08:21:02.658Z,3.80
2022-08-07T08:23:51.783Z,3.70
2022-08-07T08:26:38.474Z,3.95
2022-08-07T08:29:06.870Z,3.58
2022-08-07T08:32:04.777Z,3.65
2022-08-07T08:34:27.107Z,3.77
2022-08-07T08:36:57.933Z,3.42
2022-08-07T08:39:39.694Z,3.90
2022-08-07T08:42:26.019Z,3.65
2022-08-07T08:45:05.771Z,3.67
2022-08-07T08:48:08.625Z,4.05
2022-08-07T08:50:55.430Z,3.83
2022-08-07T08:53:45.814Z,4.20
2022-08-07T08:56:24.203Z,4.20
2022-08-07T08:59:06.556Z,4.15
2022-08-07T09:01:58.363Z,3.67
2022-08-07T09:05:06.453Z,3.90
2022-08-07T09:07:46.183Z,3.57
2022-08-07T09:10:31.727Z,4.03
2022-08-07T09:13:19.591Z,3.22
2022-08-07T09:16:26.269Z,3.20
2022-08-07T09:19:51.693Z,2.40
2022-08-07T09:24:31.401Z,2.10
2022-08-07T09:25:27.250Z,2.30
2022-08-07T09:28:05.279Z,1.90
2022-08-07T09:30:55.165Z,2.00
2022-08-07T09:33:52.523Z,2.08
2022-08-07T09:36:37.442Z,1.90
2022-08-07T09:39:54.833Z,1.70
2022-08-07T09:43:01.631Z,2.08
2022-08-07T09:47:25.884Z,1.37
2022-08-07T09:50:00.696Z,2.15
2022-08-07T09:52:34.377Z,1.63
2022-08-07T09:55:04.467Z,1.58
2022-08-07T09:57:49.463Z,2.20
2022-08-07T10:00:29.904Z,1.60
2022-08-07T10:04:06.191Z,1.80
2022-08-07T10:06:29.742Z,1.80
2022-08-07T10:09:23.723Z,1.80
2022-08-07T10:12:40.319Z,1.52
2022-08-07T10:15:37.761Z,1.48
2022-08-07T10:18:40.063Z,1.73
2022-08-07T10:22:14.605Z,1.70
2022-08-07T10:24:27.585Z,1.50
2022-08-07T10:27:25.932Z,1.48
2022-08-07T10:30:06.552Z,1.55
2022-08-07T10:33:04.402Z,1.83
2022-08-07T10:35:55.939Z,1.40
2022-08-07T10:38:47.976Z,1.70
2022-08-07T10:41:47.008Z,1.50
2022-08-07T10:44:38.642Z,1.70
2022-08-07T10:47:19.785Z,1.75
2022-08-07T10:50:05.606Z,1.90
2022-08-07T10:52:51.320Z,1.40
2022-08-07T10:55:37.039Z,1.40
2022-08-07T10:58:36.456Z,1.30
2022-08-07T11:01:22.334Z,1.70
2022-08-07T11:04:23.047Z,1.30
2022-08-07T11:06:52.546Z,1.40
2022-08-07T11:10:07.444Z,1.30
2022-08-07T11:12:31.339Z,1.80
2022-08-07T11:15:11.230Z,1.30
2022-08-07T11:18:03.728Z,1.30
2022-08-07T11:20:46.336Z,1.58
2022-08-07T11:23:48.469Z,1.50
2022-08-07T11:26:25.376Z,1.00
2022-08-07T11:29:01.464Z,1.60
2022-08-07T11:31:41.715Z,1.20
2022-08-07T11:34:55.075Z,1.52
2022-08-07T11:38:09.912Z,1.90
2022-08-07T11:40:49.662Z,1.30
2022-08-07T11:44:11.583Z,1.70
2022-08-07T11:46:58.863Z,1.50
2022-08-07T11:50:31.242Z,1.35
2022-08-07T11:53:15.424Z,1.40
2022-08-07T11:56:26.918Z,1.20
2022-08-07T12:00:07.864Z,1.00
2022-08-07T12:02:17.796Z,1.00
2022-08-07T12:05:09.087Z,0.82
2022-08-07T12:07:53.747Z,1.50
2022-08-07T12:10:49.101Z,1.13
2022-08-07T12:13:47.782Z,1.10
2022-08-07T12:16:28.955Z,1.00
2022-08-07T12:19:21.312Z,1.00
2022-08-07T12:22:39.575Z,0.98
2022-08-07T12:26:03.309Z,1.00
2022-08-07T12:28:31.531Z,1.25
2022-08-07T12:31:05.710Z,1.15
2022-08-07T12:33:56.222Z,1.00
2022-08-07T12:36:32.723Z,0.90
2022-08-07T12:39:03.348Z,1.30
2022-08-07T12:41:53.678Z,1.20
2022-08-07T12:44:24.216Z,1.20
2022-08-07T12:47:02.982Z,1.10
2022-08-07T12:49:56.676Z,1.00
2022-08-07T12:52:54.279Z,1.42
2022-08-07T12:56:02.417Z,1.20
2022-08-07T12:58:39.254Z,0.90
2022-08-07T13:01:08.814Z,0.80
2022-08-07T13:04:04.850Z,0.90
2022-08-07T13:07:00.992Z,1.10
2022-08-07T13:10:20.115Z,1.35
2022-08-07T13:12:50.609Z,0.80
2022-08-07T13:15:48.084Z,0.97
2022-08-07T13:18:39.316Z,1.15
2022-08-07T13:21:50.393Z,1.13
2022-08-07T13:25:00.699Z,1.10
2022-08-07T13:28:11.178Z,1.15
2022-08-07T13:30:40.017Z,1.10
2022-08-07T13:34:31.646Z,1.10
2022-08-07T13:36:17.866Z,1.20
2022-08-07T13:38:54.450Z,1.00
2022-08-07T13:41:35.887Z,1.15
2022-08-07T13:44:10.706Z,0.90
2022-08-07T13:46:49.190Z,1.00
2022-08-07T13:50:33.175Z,0.80
2022-08-07T13:52:31.590Z,0.90
2022-08-07T13:54:59.742Z,0.98
2022-08-07T13:57:37.605Z,1.00
2022-08-07T14:00:07.729Z,0.90
2022-08-07T14:02:45.779Z,0.90
2022-08-07T14:05:23.137Z,1.00
2022-08-07T14:07:59.531Z,1.33
2022-08-07T14:10:42.450Z,0.90
2022-08-07T14:13:16.204Z,0.98
2022-08-07T14:15:50.486Z,0.73
2022-08-07T14:18:28.337Z,0.73
2022-08-07T14:21:20.632Z,0.90
2022-08-07T14:24:21.192Z,0.80
2022-08-07T14:27:00.234Z,0.82
2022-08-07T14:30:06.367Z,1.00
2022-08-07T14:32:26.820Z,1.00
2022-08-07T14:34:55.000Z,0.82
2022-08-07T14:37:23.782Z,0.80
2022-08-07T14:40:18.105Z,0.73
2022-08-07T14:45:50.472Z,0.80
2022-08-07T14:48:21.160Z,0.90
2022-08-07T14:50:53.549Z,0.80
2022-08-07T14:56:13.945Z,0.93
2022-08-07T14:58:51.191Z,0.95
2022-08-07T15:01:42.934Z,0.80
2022-08-07T15:04:17.230Z,0.90
2022-08-07T15:06:47.559Z,0.80
2022-08-07T15:10:00.062Z,0.85
2022-08-07T15:15:09.330Z,0.70
2022-08-07T15:17:56.133Z,1.00
2022-08-07T15:20:55.001Z,1.00
2022-08-07T15:25:15.254Z,1.00
2022-08-07T15:26:20.828Z,1.00
2022-08-07T15:28:58.473Z,1.00
2022-08-07T15:32:01.804Z,0.80
2022-08-07T15:34:17.154Z,0.90
2022-08-07T15:37:03.023Z,1.00
2022-08-07T15:42:45.976Z,0.90
2022-08-07T15:45:55.694Z,1.00
2022-08-07T15:48:36.061Z,0.82
2022-08-07T15:54:12.158Z,1.08
2022-08-07T15:56:41.616Z,1.10
2022-08-07T15:59:16.640Z,1.00
2022-08-07T16:02:01.820Z,0.90
2022-08-07T16:04:32.089Z,1.10
2022-08-07T16:07:04.678Z,1.63
2022-08-07T16:09:42.336Z,1.40
2022-08-07T16:13:01.156Z,1.40
2022-08-07T16:16:48.908Z,1.10
2022-08-07T16:19:43.077Z,1.10
2022-08-07T16:22:55.672Z,1.10
2022-08-07T16:25:54.808Z,0.90
2022-08-07T16:30:07.194Z,1.15
2022-08-07T16:31:51.183Z,1.10
2022-08-07T16:34:48.208Z,1.17
2022-08-07T16:38:04.398Z,1.05
2022-08-07T16:40:33.825Z,1.05
2022-08-07T16:43:24.947Z,1.10
2022-08-07T16:47:08.767Z,0.90
2022-08-07T16:50:29.310Z,1.30
2022-08-07T16:53:20.634Z,0.90
2022-08-07T16:56:26.188Z,1.30
2022-08-07T16:59:10.123Z,0.95
2022-08-07T17:02:02.957Z,0.70
2022-08-07T17:04:58.543Z,1.00
2022-08-07T17:07:55.796Z,0.95
2022-08-07T17:10:54.349Z,1.00
2022-08-07T17:14:17.843Z,1.00
2022-08-07T17:16:55.804Z,1.40
2022-08-07T17:20:02.595Z,1.15
2022-08-07T17:22:38.111Z,0.95
2022-08-07T17:25:51.161Z,1.10
2022-08-07T17:28:24.680Z,1.10
2022-08-07T17:31:20.866Z,0.87
2022-08-07T17:34:33.253Z,1.00
2022-08-07T17:37:09.540Z,0.90
2022-08-07T17:40:08.089Z,1.00
2022-08-07T17:42:35.631Z,0.90
2022-08-07T17:45:31.499Z,1.40
2022-08-07T17:48:16.872Z,1.88
2022-08-07T17:51:21.477Z,1.20
2022-08-07T17:54:29.741Z,1.10
2022-08-07T17:57:25.463Z,1.00
2022-08-07T18:00:27.425Z,1.00
2022-08-07T18:03:27.648Z,0.93
2022-08-07T18:06:03.367Z,1.05
2022-08-07T18:09:01.289Z,1.00
2022-08-07T18:12:17.803Z,1.23
2022-08-07T18:14:46.076Z,1.00
2022-08-07T18:18:46.316Z,1.25
2022-08-07T18:21:08.667Z,0.90
2022-08-07T18:24:00.774Z,1.10
2022-08-07T18:27:06.505Z,1.42
2022-08-07T18:30:06.990Z,1.40
2022-08-07T18:32:51.214Z,1.63
2022-08-07T18:35:29.824Z,2.00
2022-08-07T18:39:01.192Z,2.50
2022-08-07T18:42:19.501Z,1.70
2022-08-07T18:45:43.639Z,1.43
2022-08-07T18:48:04.178Z,1.20
2022-08-07T18:50:49.808Z,1.20
2022-08-07T18:53:54.243Z,1.33
2022-08-07T18:56:37.787Z,3.78
2022-08-07T18:59:48.084Z,1.57
2022-08-07T19:02:34.566Z,1.23
2022-08-07T19:05:16.022Z,1.70
2022-08-07T19:08:17.381Z,1.45
2022-08-07T19:10:55.378Z,1.90
2022-08-07T19:13:28.613Z,1.30
2022-08-07T19:17:01.153Z,1.10
2022-08-07T19:19:37.743Z,1.15
2022-08-07T19:22:17.580Z,1.30
2022-08-07T19:24:50.054Z,1.35
2022-08-07T19:28:57.031Z,1.50
2022-08-07T19:31:00.066Z,1.50
2022-08-07T19:33:02.787Z,1.30
2022-08-07T19:35:37.791Z,1.30
2022-08-07T19:38:16.093Z,1.45
2022-08-07T19:40:50.176Z,1.20
2022-08-07T19:43:43.439Z,1.30
2022-08-07T19:46:10.285Z,1.25
2022-08-07T19:48:43.665Z,1.40
2022-08-07T19:51:20.396Z,1.30
2022-08-07T19:54:33.256Z,1.50
2022-08-07T19:57:50.993Z,1.20
2022-08-07T19:59:41.815Z,1.20
2022-08-07T20:02:19.767Z,1.30
2022-08-07T20:04:50.478Z,1.20
2022-08-07T20:07:45.537Z,1.60
2022-08-07T20:10:52.089Z,1.30
2022-08-07T20:13:06.001Z,1.35
2022-08-07T20:15:37.099Z,1.90
2022-08-07T20:18:18.000Z,1.45
2022-08-07T20:20:45.598Z,1.23
2022-08-07T20:23:41.024Z,1.33
2022-08-07T20:26:10.107Z,1.55
2022-08-07T20:28:39.108Z,1.48
2022-08-07T20:31:21.687Z,1.25
2022-08-07T20:33:57.513Z,1.23
2022-08-07T20:36:29.645Z,1.10
2022-08-07T20:39:00.374Z,1.40
2022-08-07T20:41:38.090Z,1.40
2022-08-07T20:44:12.432Z,1.00
2022-08-07T20:46:44.189Z,1.20
2022-08-07T20:49:58.518Z,1.02
2022-08-07T20:52:02.316Z,1.60
2022-08-07T20:54:33.400Z,1.30
2022-08-07T20:57:03.713Z,1.50
2022-08-07T21:00:07.427Z,1.17
2022-08-07T21:02:54.040Z,1.30
2022-08-07T21:05:25.732Z,1.38
2022-08-07T21:08:20.724Z,1.10
2022-08-07T21:11:10.912Z,1.10
2022-08-07T21:14:16.461Z,1.17
2022-08-07T21:16:37.731Z,1.52
2022-08-07T21:19:32.006Z,1.50
2022-08-07T21:22:16.608Z,1.25
2022-08-07T21:25:12.331Z,1.50
2022-08-07T21:27:54.709Z,1.30
2022-08-07T21:30:44.244Z,1.30
2022-08-07T21:33:41.785Z,1.33
2022-08-07T21:36:11.711Z,1.30
2022-08-07T21:38:55.505Z,1.20
2022-08-07T21:41:52.226Z,1.50
2022-08-07T21:44:40.614Z,1.30
2022-08-07T21:47:17.375Z,1.33
2022-08-07T21:50:03.301Z,0.93
2022-08-07T21:53:08.486Z,1.38
2022-08-07T21:56:03.463Z,1.10
2022-08-07T21:58:51.316Z,1.23
2022-08-07T22:02:10.825Z,1.42
2022-08-07T22:04:24.942Z,1.27
2022-08-07T22:07:09.103Z,1.45
2022-08-07T22:09:54.309Z,1.30
2022-08-07T22:12:38.530Z,1.10
2022-08-07T22:16:45.173Z,1.10
2022-08-07T22:18:07.387Z,1.23
2022-08-07T22:20:54.438Z,1.20
2022-08-07T22:23:28.432Z,1.40
2022-08-07T22:26:44.655Z,1.48
2022-08-07T22:29:48.473Z,1.33
2022-08-07T22:32:36.665Z,1.20
2022-08-07T22:35:04.844Z,1.55
2022-08-07T22:38:20.604Z,1.50
2022-08-07T22:41:11.611Z,1.33
2022-08-07T22:43:47.496Z,1.23
2022-08-07T22:47:03.526Z,1.45
2022-08-07T22:49:42.841Z,1.00
2022-08-07T22:52:47.008Z,1.33
2022-08-07T22:55:30.489Z,1.17
2022-08-07T22:58:33.820Z,1.20
2022-08-07T23:01:15.460Z,1.30
2022-08-07T23:04:17.155Z,1.30
2022-08-07T23:07:33.623Z,1.20
2022-08-07T23:10:38.226Z,1.30
2022-08-07T23:13:49.063Z,1.23
2022-08-07T23:16:44.589Z,1.23
2022-08-07T23:19:51.175Z,1.30
2022-08-07T23:22:52.553Z,1.20
2022-08-07T23:25:44.715Z,1.30
2022-08-07T23:28:28.251Z,1.17
2022-08-07T23:31:06.151Z,1.23
2022-08-07T23:34:33.775Z,1.20
2022-08-07T23:37:18.733Z,1.60
2022-08-07T23:40:08.335Z,1.40
2022-08-07T23:43:07.791Z,1.40
2022-08-07T23:46:23.601Z,1.55
2022-08-07T23:49:02.337Z,1.27
2022-08-07T23:53:17.462Z,1.33
2022-08-07T23:54:51.928Z,1.60
2022-08-07T23:57:36.311Z,1.40
